ダカール の空港の天気 - METARとTAF

レオポール・セダール・サンゴール国際空港 ( GOOY / DKR ) - セネガル ダカール
飛行場実況気象(Metar)
観測時間02/17 14:00 GMT (02/17 14:00 UTC)
風向・風速北 7m/s
視程10km以上
天気現象
なし
気温21℃
湿度64%
気圧1014hPa
METARGOOY 171400Z 36014KT CAVOK 21/14 Q1014
過去の天気等 Google飛行場航空写真 Wunderground天気予報

過去48時間のMETAR

飛行場予報(TAF)
発表時間: 2/17 11:30 GMT (2/17 11:30 UTC)
予報対象時間: 17日12時 GMT ~ 18日18時 GMT
風向・風速北 6m/s
視程10km以上
なし
TAF GOOY 171130Z 1712/1818 36012KT CAVOK